sensor_id;sensor_type;location;lat;lon;timestamp;P1;durP1;ratioP1;P2;durP2;ratioP2
14268;SDS011;7218;51.480;7.006;2023-02-28T00:01:25;8.93;;;6.10;;
14268;SDS011;7218;51.480;7.006;2023-02-28T00:03:52;8.75;;;5.15;;
14268;SDS011;7218;51.480;7.006;2023-02-28T00:06:18;8.73;;;5.60;;
14268;SDS011;7218;51.480;7.006;2023-02-28T00:08:47;8.18;;;5.35;;
14268;SDS011;7218;51.480;7.006;2023-02-28T00:11:14;13.32;;;7.10;;
14268;SDS011;7218;51.480;7.006;2023-02-28T00:13:41;11.85;;;6.53;;
14268;SDS011;7218;51.480;7.006;2023-02-28T00:16:14;11.68;;;6.68;;
14268;SDS011;7218;51.480;7.006;2023-02-28T00:18:42;8.77;;;6.28;;
14268;SDS011;7218;51.480;7.006;2023-02-28T00:21:09;8.00;;;6.03;;
14268;SDS011;7218;51.480;7.006;2023-02-28T00:23:36;7.78;;;5.68;;
14268;SDS011;7218;51.480;7.006;2023-02-28T00:26:03;10.68;;;6.22;;
14268;SDS011;7218;51.480;7.006;2023-02-28T00:28:30;7.30;;;5.78;;
14268;SDS011;7218;51.480;7.006;2023-02-28T00:30:57;7.75;;;5.45;;
14268;SDS011;7218;51.480;7.006;2023-02-28T00:33:26;7.97;;;5.72;;
14268;SDS011;7218;51.480;7.006;2023-02-28T00:36:00;11.80;;;6.35;;
14268;SDS011;7218;51.480;7.006;2023-02-28T00:38:28;7.38;;;5.35;;
14268;SDS011;7218;51.480;7.006;2023-02-28T00:40:54;9.40;;;5.57;;
14268;SDS011;7218;51.480;7.006;2023-02-28T00:43:21;8.55;;;5.18;;
14268;SDS011;7218;51.480;7.006;2023-02-28T00:45:48;7.68;;;5.38;;
14268;SDS011;7218;51.480;7.006;2023-02-28T00:48:15;8.20;;;5.40;;
14268;SDS011;7218;51.480;7.006;2023-02-28T00:50:43;7.68;;;4.80;;
14268;SDS011;7218;51.480;7.006;2023-02-28T00:53:10;8.23;;;5.45;;
14268;SDS011;7218;51.480;7.006;2023-02-28T00:55:37;7.28;;;4.68;;
14268;SDS011;7218;51.480;7.006;2023-02-28T00:58:03;6.90;;;4.78;;
14268;SDS011;7218;51.480;7.006;2023-02-28T01:00:30;7.65;;;4.72;;
14268;SDS011;7218;51.480;7.006;2023-02-28T01:02:56;8.10;;;4.18;;
14268;SDS011;7218;51.480;7.006;2023-02-28T01:05:23;8.10;;;4.28;;
14268;SDS011;7218;51.480;7.006;2023-02-28T01:07:50;5.80;;;3.33;;
14268;SDS011;7218;51.480;7.006;2023-02-28T01:10:17;6.53;;;3.95;;
14268;SDS011;7218;51.480;7.006;2023-02-28T01:12:43;5.53;;;3.58;;
14268;SDS011;7218;51.480;7.006;2023-02-28T01:15:11;5.70;;;3.30;;
14268;SDS011;7218;51.480;7.006;2023-02-28T01:17:38;5.65;;;3.35;;
14268;SDS011;7218;51.480;7.006;2023-02-28T01:20:05;6.28;;;3.40;;
14268;SDS011;7218;51.480;7.006;2023-02-28T01:22:34;4.57;;;3.00;;
14268;SDS011;7218;51.480;7.006;2023-02-28T01:25:02;5.68;;;3.47;;
14268;SDS011;7218;51.480;7.006;2023-02-28T01:27:28;5.82;;;3.20;;
14268;SDS011;7218;51.480;7.006;2023-02-28T01:29:55;5.32;;;3.35;;
14268;SDS011;7218;51.480;7.006;2023-02-28T01:32:21;6.68;;;3.20;;
14268;SDS011;7218;51.480;7.006;2023-02-28T01:34:48;6.60;;;3.20;;
14268;SDS011;7218;51.480;7.006;2023-02-28T01:37:14;6.05;;;3.42;;
14268;SDS011;7218;51.480;7.006;2023-02-28T01:39:41;4.75;;;3.20;;
14268;SDS011;7218;51.480;7.006;2023-02-28T01:42:09;6.43;;;3.42;;
14268;SDS011;7218;51.480;7.006;2023-02-28T01:47:27;4.32;;;3.22;;
14268;SDS011;7218;51.480;7.006;2023-02-28T01:49:56;6.35;;;3.70;;
14268;SDS011;7218;51.480;7.006;2023-02-28T01:52:24;5.03;;;3.17;;
14268;SDS011;7218;51.480;7.006;2023-02-28T01:54:53;5.90;;;3.65;;
14268;SDS011;7218;51.480;7.006;2023-02-28T01:57:25;6.25;;;3.35;;
14268;SDS011;7218;51.480;7.006;2023-02-28T01:59:56;5.45;;;3.13;;
14268;SDS011;7218;51.480;7.006;2023-02-28T02:02:25;6.32;;;3.35;;
14268;SDS011;7218;51.480;7.006;2023-02-28T02:04:53;5.82;;;3.70;;
14268;SDS011;7218;51.480;7.006;2023-02-28T02:07:22;6.35;;;3.40;;
14268;SDS011;7218;51.480;7.006;2023-02-28T02:09:56;6.25;;;3.38;;
14268;SDS011;7218;51.480;7.006;2023-02-28T02:12:30;7.10;;;3.30;;
14268;SDS011;7218;51.480;7.006;2023-02-28T02:15:10;5.05;;;3.08;;
14268;SDS011;7218;51.480;7.006;2023-02-28T02:17:42;5.75;;;3.38;;
14268;SDS011;7218;51.480;7.006;2023-02-28T02:20:32;5.68;;;3.45;;
14268;SDS011;7218;51.480;7.006;2023-02-28T02:23:22;5.47;;;3.60;;
14268;SDS011;7218;51.480;7.006;2023-02-28T02:26:03;6.43;;;3.03;;
14268;SDS011;7218;51.480;7.006;2023-02-28T02:28:54;5.72;;;3.22;;
14268;SDS011;7218;51.480;7.006;2023-02-28T02:31:38;5.50;;;3.05;;
14268;SDS011;7218;51.480;7.006;2023-02-28T02:34:27;4.95;;;3.03;;
14268;SDS011;7218;51.480;7.006;2023-02-28T02:37:04;7.35;;;3.30;;
14268;SDS011;7218;51.480;7.006;2023-02-28T02:39:41;6.93;;;3.35;;
14268;SDS011;7218;51.480;7.006;2023-02-28T02:42:16;5.00;;;3.47;;
14268;SDS011;7218;51.480;7.006;2023-02-28T02:44:50;4.57;;;2.90;;
14268;SDS011;7218;51.480;7.006;2023-02-28T02:47:23;4.75;;;3.22;;
14268;SDS011;7218;51.480;7.006;2023-02-28T02:49:54;4.90;;;3.17;;
14268;SDS011;7218;51.480;7.006;2023-02-28T02:52:25;8.25;;;3.40;;
14268;SDS011;7218;51.480;7.006;2023-02-28T02:54:58;4.60;;;3.20;;
14268;SDS011;7218;51.480;7.006;2023-02-28T02:57:29;4.10;;;2.92;;
14268;SDS011;7218;51.480;7.006;2023-02-28T02:59:58;4.63;;;3.38;;
14268;SDS011;7218;51.480;7.006;2023-02-28T03:02:28;4.65;;;3.25;;
14268;SDS011;7218;51.480;7.006;2023-02-28T03:05:01;4.45;;;2.95;;
14268;SDS011;7218;51.480;7.006;2023-02-28T03:07:30;5.22;;;3.40;;
14268;SDS011;7218;51.480;7.006;2023-02-28T03:09:57;3.70;;;3.00;;
14268;SDS011;7218;51.480;7.006;2023-02-28T03:12:27;6.18;;;3.33;;
14268;SDS011;7218;51.480;7.006;2023-02-28T03:15:05;6.10;;;3.40;;
14268;SDS011;7218;51.480;7.006;2023-02-28T03:17:46;4.78;;;3.38;;
14268;SDS011;7218;51.480;7.006;2023-02-28T03:20:24;5.25;;;3.65;;
14268;SDS011;7218;51.480;7.006;2023-02-28T03:23:01;6.18;;;3.40;;
14268;SDS011;7218;51.480;7.006;2023-02-28T03:25:37;5.85;;;3.60;;
14268;SDS011;7218;51.480;7.006;2023-02-28T03:28:14;6.93;;;4.50;;
14268;SDS011;7218;51.480;7.006;2023-02-28T03:30:46;6.13;;;4.05;;
14268;SDS011;7218;51.480;7.006;2023-02-28T03:33:19;6.73;;;4.40;;
14268;SDS011;7218;51.480;7.006;2023-02-28T03:35:51;6.50;;;3.83;;
14268;SDS011;7218;51.480;7.006;2023-02-28T03:38:20;7.70;;;4.65;;
14268;SDS011;7218;51.480;7.006;2023-02-28T03:40:54;10.07;;;5.38;;
14268;SDS011;7218;51.480;7.006;2023-02-28T03:43:27;8.55;;;6.15;;
14268;SDS011;7218;51.480;7.006;2023-02-28T03:45:57;9.07;;;6.20;;
14268;SDS011;7218;51.480;7.006;2023-02-28T03:48:30;12.90;;;7.70;;
14268;SDS011;7218;51.480;7.006;2023-02-28T03:51:02;11.13;;;7.85;;
14268;SDS011;7218;51.480;7.006;2023-02-28T03:53:33;12.68;;;7.85;;
14268;SDS011;7218;51.480;7.006;2023-02-28T03:56:03;11.15;;;7.13;;
14268;SDS011;7218;51.480;7.006;2023-02-28T03:58:36;9.57;;;7.03;;
14268;SDS011;7218;51.480;7.006;2023-02-28T04:01:09;12.40;;;7.25;;
14268;SDS011;7218;51.480;7.006;2023-02-28T04:03:41;10.80;;;6.75;;
14268;SDS011;7218;51.480;7.006;2023-02-28T04:06:13;10.25;;;6.60;;
14268;SDS011;7218;51.480;7.006;2023-02-28T04:08:42;11.07;;;6.72;;
14268;SDS011;7218;51.480;7.006;2023-02-28T04:11:12;10.88;;;6.70;;
14268;SDS011;7218;51.480;7.006;2023-02-28T04:13:46;10.40;;;6.80;;
14268;SDS011;7218;51.480;7.006;2023-02-28T04:16:13;10.32;;;6.47;;
14268;SDS011;7218;51.480;7.006;2023-02-28T04:18:40;11.27;;;6.13;;
14268;SDS011;7218;51.480;7.006;2023-02-28T04:21:09;7.68;;;5.53;;
14268;SDS011;7218;51.480;7.006;2023-02-28T04:23:37;7.90;;;4.90;;
14268;SDS011;7218;51.480;7.006;2023-02-28T04:26:03;8.10;;;4.90;;
14268;SDS011;7218;51.480;7.006;2023-02-28T04:28:30;6.40;;;4.65;;
14268;SDS011;7218;51.480;7.006;2023-02-28T04:30:57;8.27;;;4.43;;
14268;SDS011;7218;51.480;7.006;2023-02-28T04:33:25;6.35;;;4.03;;
14268;SDS011;7218;51.480;7.006;2023-02-28T04:35:57;8.45;;;4.38;;
14268;SDS011;7218;51.480;7.006;2023-02-28T04:38:26;6.80;;;3.95;;
14268;SDS011;7218;51.480;7.006;2023-02-28T04:40:52;8.18;;;3.97;;
14268;SDS011;7218;51.480;7.006;2023-02-28T04:43:19;6.22;;;3.70;;
14268;SDS011;7218;51.480;7.006;2023-02-28T04:45:45;6.60;;;3.80;;
14268;SDS011;7218;51.480;7.006;2023-02-28T04:48:11;6.25;;;4.00;;
14268;SDS011;7218;51.480;7.006;2023-02-28T04:50:38;7.30;;;3.83;;
14268;SDS011;7218;51.480;7.006;2023-02-28T04:53:04;7.90;;;3.65;;
14268;SDS011;7218;51.480;7.006;2023-02-28T04:55:32;8.98;;;3.90;;
14268;SDS011;7218;51.480;7.006;2023-02-28T04:57:59;6.03;;;3.58;;
14268;SDS011;7218;51.480;7.006;2023-02-28T05:00:25;7.40;;;3.67;;
14268;SDS011;7218;51.480;7.006;2023-02-28T05:02:52;6.53;;;4.20;;
14268;SDS011;7218;51.480;7.006;2023-02-28T05:05:18;7.97;;;4.03;;
14268;SDS011;7218;51.480;7.006;2023-02-28T05:07:45;6.03;;;4.00;;
14268;SDS011;7218;51.480;7.006;2023-02-28T05:10:11;5.38;;;4.25;;
14268;SDS011;7218;51.480;7.006;2023-02-28T05:12:39;9.38;;;5.95;;
14268;SDS011;7218;51.480;7.006;2023-02-28T05:15:06;12.55;;;7.50;;
14268;SDS011;7218;51.480;7.006;2023-02-28T05:17:34;15.13;;;8.98;;
14268;SDS011;7218;51.480;7.006;2023-02-28T05:20:00;18.88;;;11.15;;
14268;SDS011;7218;51.480;7.006;2023-02-28T05:22:29;18.02;;;11.70;;
14268;SDS011;7218;51.480;7.006;2023-02-28T05:24:56;18.00;;;11.52;;
14268;SDS011;7218;51.480;7.006;2023-02-28T05:27:22;17.52;;;10.80;;
14268;SDS011;7218;51.480;7.006;2023-02-28T05:29:51;14.88;;;9.32;;
14268;SDS011;7218;51.480;7.006;2023-02-28T05:32:17;11.15;;;7.65;;
14268;SDS011;7218;51.480;7.006;2023-02-28T05:34:44;11.15;;;6.28;;
14268;SDS011;7218;51.480;7.006;2023-02-28T05:37:11;8.63;;;5.65;;
14268;SDS011;7218;51.480;7.006;2023-02-28T05:39:39;9.90;;;5.35;;
14268;SDS011;7218;51.480;7.006;2023-02-28T05:42:05;9.43;;;4.57;;
14268;SDS011;7218;51.480;7.006;2023-02-28T05:44:32;9.30;;;4.90;;
14268;SDS011;7218;51.480;7.006;2023-02-28T05:47:00;8.68;;;4.43;;
14268;SDS011;7218;51.480;7.006;2023-02-28T05:49:26;7.13;;;4.45;;
14268;SDS011;7218;51.480;7.006;2023-02-28T05:51:53;7.53;;;3.90;;
14268;SDS011;7218;51.480;7.006;2023-02-28T05:54:19;6.25;;;4.03;;
14268;SDS011;7218;51.480;7.006;2023-02-28T05:56:46;7.43;;;3.90;;
14268;SDS011;7218;51.480;7.006;2023-02-28T05:59:12;6.93;;;3.90;;
14268;SDS011;7218;51.480;7.006;2023-02-28T06:01:40;5.35;;;3.80;;
14268;SDS011;7218;51.480;7.006;2023-02-28T06:04:14;4.88;;;3.60;;
14268;SDS011;7218;51.480;7.006;2023-02-28T06:06:43;7.43;;;3.70;;
14268;SDS011;7218;51.480;7.006;2023-02-28T06:09:11;5.70;;;3.47;;
14268;SDS011;7218;51.480;7.006;2023-02-28T06:11:38;6.43;;;3.90;;
14268;SDS011;7218;51.480;7.006;2023-02-28T06:14:04;5.90;;;4.70;;
14268;SDS011;7218;51.480;7.006;2023-02-28T06:16:32;9.60;;;5.77;;
14268;SDS011;7218;51.480;7.006;2023-02-28T06:19:00;12.00;;;6.70;;
14268;SDS011;7218;51.480;7.006;2023-02-28T06:24:00;7.80;;;5.00;;
14268;SDS011;7218;51.480;7.006;2023-02-28T06:26:27;10.67;;;5.20;;
14268;SDS011;7218;51.480;7.006;2023-02-28T06:28:54;11.50;;;7.20;;
14268;SDS011;7218;51.480;7.006;2023-02-28T06:31:21;22.40;;;11.57;;
14268;SDS011;7218;51.480;7.006;2023-02-28T06:33:49;28.60;;;16.02;;
14268;SDS011;7218;51.480;7.006;2023-02-28T06:36:16;28.35;;;16.67;;
14268;SDS011;7218;51.480;7.006;2023-02-28T06:38:44;19.77;;;11.73;;
14268;SDS011;7218;51.480;7.006;2023-02-28T06:41:12;17.42;;;9.85;;
14268;SDS011;7218;51.480;7.006;2023-02-28T06:43:39;15.23;;;8.87;;
14268;SDS011;7218;51.480;7.006;2023-02-28T06:46:08;14.40;;;7.30;;
14268;SDS011;7218;51.480;7.006;2023-02-28T06:48:37;12.52;;;6.25;;
14268;SDS011;7218;51.480;7.006;2023-02-28T06:51:04;8.93;;;5.53;;
14268;SDS011;7218;51.480;7.006;2023-02-28T06:53:34;8.03;;;5.13;;
14268;SDS011;7218;51.480;7.006;2023-02-28T06:56:03;8.38;;;4.85;;
14268;SDS011;7218;51.480;7.006;2023-02-28T06:58:32;6.20;;;4.47;;
14268;SDS011;7218;51.480;7.006;2023-02-28T07:00:58;9.68;;;4.72;;
14268;SDS011;7218;51.480;7.006;2023-02-28T07:03:25;9.47;;;4.90;;
14268;SDS011;7218;51.480;7.006;2023-02-28T07:05:51;6.25;;;4.25;;
14268;SDS011;7218;51.480;7.006;2023-02-28T07:08:18;7.38;;;4.30;;
14268;SDS011;7218;51.480;7.006;2023-02-28T07:10:44;5.15;;;3.50;;
14268;SDS011;7218;51.480;7.006;2023-02-28T07:13:11;5.55;;;3.50;;
14268;SDS011;7218;51.480;7.006;2023-02-28T07:15:38;6.40;;;3.28;;
14268;SDS011;7218;51.480;7.006;2023-02-28T07:18:05;6.32;;;3.10;;
14268;SDS011;7218;51.480;7.006;2023-02-28T07:20:31;5.25;;;3.15;;
14268;SDS011;7218;51.480;7.006;2023-02-28T07:22:58;7.40;;;3.05;;
14268;SDS011;7218;51.480;7.006;2023-02-28T07:25:26;5.80;;;3.55;;
14268;SDS011;7218;51.480;7.006;2023-02-28T07:27:53;6.32;;;3.65;;
14268;SDS011;7218;51.480;7.006;2023-02-28T07:30:20;4.90;;;3.58;;
14268;SDS011;7218;51.480;7.006;2023-02-28T07:32:48;7.07;;;3.90;;
14268;SDS011;7218;51.480;7.006;2023-02-28T07:35:14;7.70;;;4.22;;
14268;SDS011;7218;51.480;7.006;2023-02-28T07:37:41;8.15;;;4.75;;
14268;SDS011;7218;51.480;7.006;2023-02-28T07:40:09;9.13;;;4.60;;
14268;SDS011;7218;51.480;7.006;2023-02-28T07:42:37;10.63;;;5.10;;
14268;SDS011;7218;51.480;7.006;2023-02-28T07:45:04;8.35;;;5.47;;
14268;SDS011;7218;51.480;7.006;2023-02-28T07:47:31;8.80;;;4.53;;
14268;SDS011;7218;51.480;7.006;2023-02-28T07:49:59;7.00;;;4.20;;
14268;SDS011;7218;51.480;7.006;2023-02-28T07:52:26;6.97;;;3.60;;
14268;SDS011;7218;51.480;7.006;2023-02-28T07:54:53;5.57;;;3.58;;
14268;SDS011;7218;51.480;7.006;2023-02-28T07:57:19;7.55;;;3.22;;
14268;SDS011;7218;51.480;7.006;2023-02-28T07:59:46;4.32;;;3.03;;
14268;SDS011;7218;51.480;7.006;2023-02-28T08:02:13;6.65;;;3.58;;
14268;SDS011;7218;51.480;7.006;2023-02-28T08:04:40;6.65;;;3.20;;
14268;SDS011;7218;51.480;7.006;2023-02-28T08:07:08;3.80;;;2.72;;
14268;SDS011;7218;51.480;7.006;2023-02-28T08:09:36;4.90;;;2.75;;
14268;SDS011;7218;51.480;7.006;2023-02-28T08:12:03;4.78;;;3.03;;
14268;SDS011;7218;51.480;7.006;2023-02-28T08:14:30;5.38;;;3.50;;
14268;SDS011;7218;51.480;7.006;2023-02-28T08:16:56;4.18;;;3.20;;
14268;SDS011;7218;51.480;7.006;2023-02-28T08:19:23;5.55;;;3.35;;
14268;SDS011;7218;51.480;7.006;2023-02-28T08:21:49;5.28;;;3.70;;
14268;SDS011;7218;51.480;7.006;2023-02-28T08:24:17;5.97;;;3.85;;
14268;SDS011;7218;51.480;7.006;2023-02-28T08:26:44;6.22;;;3.60;;
14268;SDS011;7218;51.480;7.006;2023-02-28T08:29:10;10.20;;;3.88;;
14268;SDS011;7218;51.480;7.006;2023-02-28T08:31:36;14.75;;;7.25;;
14268;SDS011;7218;51.480;7.006;2023-02-28T08:34:04;19.10;;;8.20;;
14268;SDS011;7218;51.480;7.006;2023-02-28T08:36:31;33.45;;;12.25;;
14268;SDS011;7218;51.480;7.006;2023-02-28T08:38:58;21.42;;;8.05;;
14268;SDS011;7218;51.480;7.006;2023-02-28T08:41:26;10.27;;;5.00;;
14268;SDS011;7218;51.480;7.006;2023-02-28T08:43:52;7.72;;;4.30;;
14268;SDS011;7218;51.480;7.006;2023-02-28T08:46:19;4.72;;;3.40;;
14268;SDS011;7218;51.480;7.006;2023-02-28T08:48:46;4.35;;;2.80;;
14268;SDS011;7218;51.480;7.006;2023-02-28T08:51:13;4.97;;;3.28;;
14268;SDS011;7218;51.480;7.006;2023-02-28T08:53:43;6.55;;;3.25;;
14268;SDS011;7218;51.480;7.006;2023-02-28T08:56:11;3.85;;;3.00;;
14268;SDS011;7218;51.480;7.006;2023-02-28T08:58:40;3.63;;;2.70;;
14268;SDS011;7218;51.480;7.006;2023-02-28T09:01:07;5.05;;;3.05;;
14268;SDS011;7218;51.480;7.006;2023-02-28T09:03:35;4.55;;;2.65;;
14268;SDS011;7218;51.480;7.006;2023-02-28T09:06:02;6.95;;;3.15;;
14268;SDS011;7218;51.480;7.006;2023-02-28T09:08:29;2.60;;;2.40;;
14268;SDS011;7218;51.480;7.006;2023-02-28T09:10:57;3.30;;;2.50;;
14268;SDS011;7218;51.480;7.006;2023-02-28T09:13:24;3.83;;;2.53;;
14268;SDS011;7218;51.480;7.006;2023-02-28T09:15:53;4.30;;;2.60;;
14268;SDS011;7218;51.480;7.006;2023-02-28T09:18:20;3.53;;;2.55;;
14268;SDS011;7218;51.480;7.006;2023-02-28T09:20:46;2.78;;;2.30;;
14268;SDS011;7218;51.480;7.006;2023-02-28T09:23:13;2.63;;;2.10;;
14268;SDS011;7218;51.480;7.006;2023-02-28T09:25:44;3.35;;;2.50;;
14268;SDS011;7218;51.480;7.006;2023-02-28T09:28:12;5.38;;;2.22;;
14268;SDS011;7218;51.480;7.006;2023-02-28T09:30:40;2.97;;;2.20;;
14268;SDS011;7218;51.480;7.006;2023-02-28T09:33:08;2.75;;;1.90;;
14268;SDS011;7218;51.480;7.006;2023-02-28T09:35:34;7.60;;;2.03;;
14268;SDS011;7218;51.480;7.006;2023-02-28T09:38:02;2.95;;;2.17;;
14268;SDS011;7218;51.480;7.006;2023-02-28T09:40:29;7.78;;;3.83;;
14268;SDS011;7218;51.480;7.006;2023-02-28T09:42:56;7.22;;;4.00;;
14268;SDS011;7218;51.480;7.006;2023-02-28T09:45:27;3.40;;;2.65;;
14268;SDS011;7218;51.480;7.006;2023-02-28T09:47:58;2.72;;;2.42;;
14268;SDS011;7218;51.480;7.006;2023-02-28T09:50:32;3.33;;;2.45;;
14268;SDS011;7218;51.480;7.006;2023-02-28T09:53:06;4.20;;;3.15;;
14268;SDS011;7218;51.480;7.006;2023-02-28T09:55:42;4.10;;;3.13;;
14268;SDS011;7218;51.480;7.006;2023-02-28T09:58:16;3.40;;;3.10;;
14268;SDS011;7218;51.480;7.006;2023-02-28T10:00:50;3.83;;;2.95;;
14268;SDS011;7218;51.480;7.006;2023-02-28T10:03:27;4.80;;;2.50;;
14268;SDS011;7218;51.480;7.006;2023-02-28T10:05:58;2.63;;;2.10;;
14268;SDS011;7218;51.480;7.006;2023-02-28T10:08:32;5.53;;;2.50;;
14268;SDS011;7218;51.480;7.006;2023-02-28T10:11:06;2.45;;;1.83;;
14268;SDS011;7218;51.480;7.006;2023-02-28T10:13:36;3.22;;;1.98;;
14268;SDS011;7218;51.480;7.006;2023-02-28T10:16:08;2.65;;;2.00;;
14268;SDS011;7218;51.480;7.006;2023-02-28T10:18:41;2.53;;;2.00;;
14268;SDS011;7218;51.480;7.006;2023-02-28T10:21:16;2.67;;;2.08;;
14268;SDS011;7218;51.480;7.006;2023-02-28T10:23:46;3.22;;;1.77;;
14268;SDS011;7218;51.480;7.006;2023-02-28T10:26:16;2.42;;;1.73;;
14268;SDS011;7218;51.480;7.006;2023-02-28T10:28:43;4.07;;;2.00;;
14268;SDS011;7218;51.480;7.006;2023-02-28T10:31:11;2.58;;;1.80;;
14268;SDS011;7218;51.480;7.006;2023-02-28T10:33:41;3.17;;;1.60;;
14268;SDS011;7218;51.480;7.006;2023-02-28T10:36:08;1.92;;;1.58;;
14268;SDS011;7218;51.480;7.006;2023-02-28T10:38:40;1.65;;;1.35;;
14268;SDS011;7218;51.480;7.006;2023-02-28T10:41:07;2.40;;;1.60;;
14268;SDS011;7218;51.480;7.006;2023-02-28T10:43:36;3.95;;;1.85;;
14268;SDS011;7218;51.480;7.006;2023-02-28T10:46:09;1.83;;;1.45;;
14268;SDS011;7218;51.480;7.006;2023-02-28T10:48:57;1.98;;;1.60;;
14268;SDS011;7218;51.480;7.006;2023-02-28T10:51:27;1.98;;;1.30;;
14268;SDS011;7218;51.480;7.006;2023-02-28T10:54:04;1.70;;;1.40;;
14268;SDS011;7218;51.480;7.006;2023-02-28T10:56:31;1.60;;;1.50;;
14268;SDS011;7218;51.480;7.006;2023-02-28T10:58:59;2.35;;;1.60;;
14268;SDS011;7218;51.480;7.006;2023-02-28T11:01:34;1.83;;;1.30;;
14268;SDS011;7218;51.480;7.006;2023-02-28T11:04:03;2.13;;;1.42;;
14268;SDS011;7218;51.480;7.006;2023-02-28T11:06:42;1.58;;;1.45;;
14268;SDS011;7218;51.480;7.006;2023-02-28T11:09:15;2.00;;;1.38;;
14268;SDS011;7218;51.480;7.006;2023-02-28T11:11:46;1.50;;;1.23;;
14268;SDS011;7218;51.480;7.006;2023-02-28T11:14:17;2.28;;;1.30;;
14268;SDS011;7218;51.480;7.006;2023-02-28T11:16:46;2.10;;;1.90;;
14268;SDS011;7218;51.480;7.006;2023-02-28T11:19:17;3.83;;;2.55;;
14268;SDS011;7218;51.480;7.006;2023-02-28T11:21:48;2.33;;;1.75;;
14268;SDS011;7218;51.480;7.006;2023-02-28T11:24:21;3.70;;;2.58;;
14268;SDS011;7218;51.480;7.006;2023-02-28T11:26:50;3.70;;;2.78;;
14268;SDS011;7218;51.480;7.006;2023-02-28T11:29:19;2.15;;;1.88;;
14268;SDS011;7218;51.480;7.006;2023-02-28T11:32:00;4.97;;;2.70;;
14268;SDS011;7218;51.480;7.006;2023-02-28T11:34:42;2.85;;;2.08;;
14268;SDS011;7218;51.480;7.006;2023-02-28T11:37:11;2.53;;;2.17;;
14268;SDS011;7218;51.480;7.006;2023-02-28T11:39:42;5.05;;;2.20;;
14268;SDS011;7218;51.480;7.006;2023-02-28T11:42:19;5.55;;;3.30;;
14268;SDS011;7218;51.480;7.006;2023-02-28T11:45:11;3.58;;;1.88;;
14268;SDS011;7218;51.480;7.006;2023-02-28T11:47:47;2.95;;;2.03;;
14268;SDS011;7218;51.480;7.006;2023-02-28T11:50:22;3.60;;;2.00;;
14268;SDS011;7218;51.480;7.006;2023-02-28T11:53:10;2.45;;;1.63;;
14268;SDS011;7218;51.480;7.006;2023-02-28T11:55:45;2.17;;;1.55;;
14268;SDS011;7218;51.480;7.006;2023-02-28T11:58:27;2.45;;;1.85;;
14268;SDS011;7218;51.480;7.006;2023-02-28T12:01:26;2.40;;;2.00;;
14268;SDS011;7218;51.480;7.006;2023-02-28T12:04:10;2.15;;;1.60;;
14268;SDS011;7218;51.480;7.006;2023-02-28T12:06:50;2.38;;;1.67;;
14268;SDS011;7218;51.480;7.006;2023-02-28T12:09:33;1.88;;;1.58;;
14268;SDS011;7218;51.480;7.006;2023-02-28T12:12:12;1.60;;;1.50;;
14268;SDS011;7218;51.480;7.006;2023-02-28T12:14:56;2.20;;;1.90;;
14268;SDS011;7218;51.480;7.006;2023-02-28T12:17:51;1.75;;;1.65;;
14268;SDS011;7218;51.480;7.006;2023-02-28T12:20:32;2.20;;;1.85;;
14268;SDS011;7218;51.480;7.006;2023-02-28T12:23:10;1.70;;;1.60;;
14268;SDS011;7218;51.480;7.006;2023-02-28T12:25:50;2.28;;;1.70;;
14268;SDS011;7218;51.480;7.006;2023-02-28T12:28:28;2.10;;;1.58;;
14268;SDS011;7218;51.480;7.006;2023-02-28T12:31:00;1.52;;;1.42;;
14268;SDS011;7218;51.480;7.006;2023-02-28T12:33:32;2.10;;;1.60;;
14268;SDS011;7218;51.480;7.006;2023-02-28T12:36:03;1.95;;;1.50;;
14268;SDS011;7218;51.480;7.006;2023-02-28T12:38:36;3.25;;;1.77;;
14268;SDS011;7218;51.480;7.006;2023-02-28T12:41:06;2.22;;;1.70;;
14268;SDS011;7218;51.480;7.006;2023-02-28T12:43:40;1.70;;;1.60;;
14268;SDS011;7218;51.480;7.006;2023-02-28T12:46:11;2.40;;;1.70;;
14268;SDS011;7218;51.480;7.006;2023-02-28T12:48:43;2.53;;;2.25;;
14268;SDS011;7218;51.480;7.006;2023-02-28T12:51:12;2.97;;;2.22;;
14268;SDS011;7218;51.480;7.006;2023-02-28T12:53:47;2.88;;;2.50;;
14268;SDS011;7218;51.480;7.006;2023-02-28T12:56:23;3.97;;;2.17;;
14268;SDS011;7218;51.480;7.006;2023-02-28T12:59:01;2.38;;;2.17;;
14268;SDS011;7218;51.480;7.006;2023-02-28T13:01:39;2.65;;;2.00;;
14268;SDS011;7218;51.480;7.006;2023-02-28T13:04:28;3.50;;;2.03;;
14268;SDS011;7218;51.480;7.006;2023-02-28T13:10:11;2.13;;;1.70;;
14268;SDS011;7218;51.480;7.006;2023-02-28T13:12:46;2.80;;;1.75;;
14268;SDS011;7218;51.480;7.006;2023-02-28T13:15:18;1.92;;;1.70;;
14268;SDS011;7218;51.480;7.006;2023-02-28T13:17:49;2.28;;;1.90;;
14268;SDS011;7218;51.480;7.006;2023-02-28T13:20:18;2.30;;;1.90;;
14268;SDS011;7218;51.480;7.006;2023-02-28T13:22:46;2.95;;;1.73;;
14268;SDS011;7218;51.480;7.006;2023-02-28T13:34:34;2.22;;;1.95;;
14268;SDS011;7218;51.480;7.006;2023-02-28T13:40:22;2.25;;;1.90;;
14268;SDS011;7218;51.480;7.006;2023-02-28T13:42:54;2.75;;;2.03;;
14268;SDS011;7218;51.480;7.006;2023-02-28T13:45:22;2.20;;;1.92;;
14268;SDS011;7218;51.480;7.006;2023-02-28T13:47:53;3.00;;;2.25;;
14268;SDS011;7218;51.480;7.006;2023-02-28T13:50:33;2.10;;;1.90;;
14268;SDS011;7218;51.480;7.006;2023-02-28T13:56:10;4.97;;;2.45;;
14268;SDS011;7218;51.480;7.006;2023-02-28T13:58:52;3.95;;;2.10;;
14268;SDS011;7218;51.480;7.006;2023-02-28T14:01:33;3.83;;;2.20;;
14268;SDS011;7218;51.480;7.006;2023-02-28T14:04:13;2.63;;;2.05;;
14268;SDS011;7218;51.480;7.006;2023-02-28T14:06:55;3.33;;;1.98;;
14268;SDS011;7218;51.480;7.006;2023-02-28T14:09:24;3.08;;;2.20;;
14268;SDS011;7218;51.480;7.006;2023-02-28T14:11:53;4.00;;;2.00;;
14268;SDS011;7218;51.480;7.006;2023-02-28T14:17:21;2.75;;;2.00;;
14268;SDS011;7218;51.480;7.006;2023-02-28T14:19:50;2.20;;;2.00;;
14268;SDS011;7218;51.480;7.006;2023-02-28T14:22:21;2.10;;;1.90;;
14268;SDS011;7218;51.480;7.006;2023-02-28T14:25:10;2.15;;;1.90;;
14268;SDS011;7218;51.480;7.006;2023-02-28T14:27:47;2.22;;;1.90;;
14268;SDS011;7218;51.480;7.006;2023-02-28T14:30:43;3.25;;;2.00;;
14268;SDS011;7218;51.480;7.006;2023-02-28T14:33:22;2.75;;;2.25;;
14268;SDS011;7218;51.480;7.006;2023-02-28T14:38:43;3.67;;;2.00;;
14268;SDS011;7218;51.480;7.006;2023-02-28T14:41:15;2.88;;;2.20;;
14268;SDS011;7218;51.480;7.006;2023-02-28T14:43:50;2.97;;;2.10;;
14268;SDS011;7218;51.480;7.006;2023-02-28T14:46:18;5.28;;;2.40;;
14268;SDS011;7218;51.480;7.006;2023-02-28T14:48:46;3.25;;;2.20;;
14268;SDS011;7218;51.480;7.006;2023-02-28T14:51:17;2.20;;;2.00;;
14268;SDS011;7218;51.480;7.006;2023-02-28T14:53:47;2.65;;;2.10;;
14268;SDS011;7218;51.480;7.006;2023-02-28T14:56:21;5.15;;;2.00;;
14268;SDS011;7218;51.480;7.006;2023-02-28T14:58:52;2.30;;;1.95;;
14268;SDS011;7218;51.480;7.006;2023-02-28T15:01:20;2.30;;;2.10;;
14268;SDS011;7218;51.480;7.006;2023-02-28T15:03:48;3.95;;;2.20;;
14268;SDS011;7218;51.480;7.006;2023-02-28T15:06:23;2.60;;;2.20;;
14268;SDS011;7218;51.480;7.006;2023-02-28T15:11:39;3.33;;;2.20;;
14268;SDS011;7218;51.480;7.006;2023-02-28T15:14:06;3.63;;;1.98;;
14268;SDS011;7218;51.480;7.006;2023-02-28T15:16:39;5.72;;;2.33;;
14268;SDS011;7218;51.480;7.006;2023-02-28T15:19:12;1.92;;;1.83;;
14268;SDS011;7218;51.480;7.006;2023-02-28T15:21:43;2.75;;;2.05;;
14268;SDS011;7218;51.480;7.006;2023-02-28T15:24:15;4.18;;;2.10;;
14268;SDS011;7218;51.480;7.006;2023-02-28T15:26:49;4.38;;;2.10;;
14268;SDS011;7218;51.480;7.006;2023-02-28T15:29:19;2.83;;;2.13;;
14268;SDS011;7218;51.480;7.006;2023-02-28T15:31:48;4.13;;;2.10;;
14268;SDS011;7218;51.480;7.006;2023-02-28T15:34:18;2.40;;;2.20;;
14268;SDS011;7218;51.480;7.006;2023-02-28T15:36:46;2.55;;;2.30;;
14268;SDS011;7218;51.480;7.006;2023-02-28T15:39:19;2.60;;;2.40;;
14268;SDS011;7218;51.480;7.006;2023-02-28T15:41:48;3.72;;;2.50;;
14268;SDS011;7218;51.480;7.006;2023-02-28T15:44:15;2.60;;;2.40;;
14268;SDS011;7218;51.480;7.006;2023-02-28T15:46:45;3.70;;;2.30;;
14268;SDS011;7218;51.480;7.006;2023-02-28T15:49:21;2.47;;;2.15;;
14268;SDS011;7218;51.480;7.006;2023-02-28T15:51:49;3.08;;;2.20;;
14268;SDS011;7218;51.480;7.006;2023-02-28T15:54:20;3.00;;;2.30;;